createdAt,value
2019-05-07T00:00:03.759Z,80.12
2019-05-07T00:01:02.887Z,80.02
2019-05-07T00:02:02.669Z,79.83
2019-05-07T00:02:59.870Z,80.5
2019-05-07T00:03:58.551Z,80.88
2019-05-07T00:04:57.215Z,80.88
2019-05-07T00:05:55.798Z,80.22
2019-05-07T00:06:54.616Z,80.31
2019-05-07T00:07:53.246Z,80.22
2019-05-07T00:08:52.287Z,80.22
2019-05-07T00:09:52.528Z,80.12
2019-05-07T00:10:49.364Z,80.02
2019-05-07T00:11:47.950Z,79.83
2019-05-07T00:12:46.798Z,80.5
2019-05-07T00:13:45.353Z,80.5
2019-05-07T00:14:57.262Z,80.88
2019-05-07T00:15:42.834Z,80.88
2019-05-07T00:16:42.169Z,80.6
2019-05-07T00:17:40.017Z,80.98
2019-05-07T00:18:38.810Z,80.84
2019-05-07T00:19:37.348Z,81.51
2019-05-07T00:20:35.907Z,81.13
2019-05-07T00:21:34.750Z,81.32
2019-05-07T00:22:33.424Z,81.74
2019-05-07T00:23:32.566Z,81.03
2019-05-07T00:24:32.877Z,81.32
2019-05-07T00:25:29.184Z,81.79
2019-05-07T00:26:27.705Z,81.98
2019-05-07T00:27:26.582Z,82.27
2019-05-07T00:28:25.439Z,81.98
2019-05-07T00:29:24.031Z,82.37
2019-05-07T00:30:22.610Z,81.51
2019-05-07T00:31:23.210Z,81.7
2019-05-07T00:32:21.872Z,82.14
2019-05-07T00:33:18.673Z,81.47
2019-05-07T00:34:17.236Z,82.04
2019-05-07T00:35:15.884Z,82.18
2019-05-07T00:36:14.938Z,82.46
2019-05-07T00:37:13.539Z,81.6
2019-05-07T00:38:12.879Z,81.41
2019-05-07T00:39:12.242Z,81.32
2019-05-07T00:40:09.529Z,80.84
2019-05-07T00:41:08.362Z,80.65
2019-05-07T00:42:06.941Z,80.65
2019-05-07T00:43:05.505Z,80.65
2019-05-07T00:44:04.297Z,81.13
2019-05-07T00:45:13.899Z,80.75
2019-05-07T00:46:02.245Z,81.13
2019-05-07T00:47:02.173Z,80.94
2019-05-07T00:47:58.839Z,80.84
2019-05-07T00:48:57.415Z,80.94
2019-05-07T00:49:56.093Z,81.13
2019-05-07T00:50:54.798Z,81.32
2019-05-07T00:51:53.342Z,81.6
2019-05-07T00:52:52.451Z,81.66
2019-05-07T00:53:52.015Z,82.04
2019-05-07T00:54:49.309Z,83.18
2019-05-07T00:55:47.986Z,83.47
2019-05-07T00:56:46.555Z,83.47
2019-05-07T00:57:45.909Z,84.61
2019-05-07T00:58:44.614Z,83.85
2019-05-07T00:59:43.189Z,83.37
2019-05-07T01:00:42.163Z,83.18
2019-05-07T01:01:40.586Z,82.99
2019-05-07T01:02:39.211Z,82.7
2019-05-07T01:03:37.859Z,82.99
2019-05-07T01:04:36.612Z,82.61
2019-05-07T01:05:35.148Z,82.7
2019-05-07T01:06:33.688Z,83.37
2019-05-07T01:07:32.567Z,83.37
2019-05-07T01:08:32.142Z,83.75
2019-05-07T01:09:29.558Z,82.51
2019-05-07T01:10:28.283Z,82.61
2019-05-07T01:11:26.909Z,82.42
2019-05-07T01:12:25.476Z,82.7
2019-05-07T01:13:24.086Z,82.51
2019-05-07T01:14:23.001Z,83.18
2019-05-07T01:15:28.654Z,83.28
2019-05-07T01:16:21.930Z,82.7
2019-05-07T01:17:18.434Z,82.7
2019-05-07T01:18:17.053Z,82.32
2019-05-07T01:19:15.626Z,81.95
2019-05-07T01:20:14.400Z,81.76
2019-05-07T01:21:13.323Z,82.04
2019-05-07T01:22:12.571Z,81.85
2019-05-07T01:23:10.397Z,81.85
2019-05-07T01:24:08.968Z,82.32
2019-05-07T01:25:07.541Z,82.04
2019-05-07T01:26:06.114Z,82.14
2019-05-07T01:27:04.877Z,82.51
2019-05-07T01:28:03.453Z,83.28
2019-05-07T01:29:03.099Z,83.71
2019-05-07T01:30:02.471Z,84.56
2019-05-07T01:30:59.384Z,85.52
2019-05-07T01:31:57.956Z,85.61
2019-05-07T01:32:56.612Z,86.28
2019-05-07T01:33:55.201Z,86.33
2019-05-07T01:34:53.777Z,87.47
2019-05-07T01:35:52.887Z,87.19
2019-05-07T01:36:52.327Z,87.28
2019-05-07T01:37:51.864Z,87.38
2019-05-07T01:38:48.790Z,87.13
2019-05-07T01:39:47.334Z,86.85
2019-05-07T01:40:45.935Z,86.28
2019-05-07T01:41:44.708Z,85.71
2019-05-07T01:42:43.286Z,85.9
2019-05-07T01:43:42.878Z,86.18
2019-05-07T01:44:41.981Z,85.71
2019-05-07T01:45:46.207Z,86.28
2019-05-07T01:46:37.815Z,86.28
2019-05-07T01:47:36.367Z,86.09
2019-05-07T01:48:34.934Z,86.09
2019-05-07T01:49:33.504Z,85.24
2019-05-07T01:50:32.408Z,85.24
2019-05-07T01:51:32.579Z,84.47
2019-05-07T01:52:29.602Z,84.47
2019-05-07T01:53:28.211Z,84.95
2019-05-07T01:54:26.977Z,84
2019-05-07T01:55:25.563Z,83.9
2019-05-07T01:56:24.438Z,84.47
2019-05-07T01:57:23.294Z,85.04
2019-05-07T01:58:22.170Z,85.14
2019-05-07T01:59:21.931Z,85.33
2019-05-07T02:00:19.025Z,85.33
2019-05-07T02:01:17.603Z,85.04
2019-05-07T02:02:16.461Z,85.52
2019-05-07T02:03:15.168Z,85.61
2019-05-07T02:04:13.719Z,85.33
2019-05-07T02:05:12.424Z,85.24
2019-05-07T02:06:13.045Z,85.42
2019-05-07T02:07:11.629Z,85.86
2019-05-07T02:08:08.270Z,86.43
2019-05-07T02:09:10.013Z,86.61
2019-05-07T02:10:05.588Z,86.9
2019-05-07T02:11:04.179Z,86.9
2019-05-07T02:12:02.968Z,87.19
2019-05-07T02:13:02.230Z,87.76
2019-05-07T02:14:01.973Z,87.66
2019-05-07T02:14:58.840Z,87.95
2019-05-07T02:16:00.965Z,88.42
2019-05-07T02:16:56.013Z,88.57
2019-05-07T02:17:54.746Z,88.95
2019-05-07T02:18:53.288Z,89.23
2019-05-07T02:19:52.722Z,89.42
2019-05-07T02:20:52.086Z,89.42
2019-05-07T02:21:49.275Z,89.23
2019-05-07T02:22:47.833Z,89.9
2019-05-07T02:23:46.429Z,90
2019-05-07T02:24:45.019Z,89.8
2019-05-07T02:25:43.738Z,89.9
2019-05-07T02:26:42.764Z,89.42
2019-05-07T02:27:42.027Z,90.37
2019-05-07T02:28:39.651Z,90.19
2019-05-07T02:29:38.374Z,90.37
2019-05-07T02:30:36.962Z,90.09
2019-05-07T02:31:35.509Z,91.04
2019-05-07T02:32:34.481Z,91.23
2019-05-07T02:33:35.033Z,90.19
2019-05-07T02:34:34.146Z,89.42
2019-05-07T02:35:33.023Z,89.33
2019-05-07T02:36:29.133Z,89.71
2019-05-07T02:37:35.340Z,89.8
2019-05-07T02:38:26.562Z,89.23
2019-05-07T02:41:06.802Z,89.33
2019-05-07T02:42:05.370Z,89.9
2019-05-07T02:43:04.008Z,89.18
2019-05-07T02:44:04.063Z,88.33
2019-05-07T02:45:03.959Z,86.9
2019-05-07T02:46:16.896Z,86.52
2019-05-07T02:46:58.577Z,86.24
2019-05-07T02:47:57.205Z,86.14
2019-05-07T02:48:55.726Z,86.24
2019-05-07T02:49:54.502Z,86.33
2019-05-07T02:50:53.960Z,86.33
2019-05-07T02:51:53.098Z,86.8
2019-05-07T02:52:53.304Z,86.95
2019-05-07T02:53:49.034Z,86.67
2019-05-07T02:54:47.583Z,87.71
2019-05-07T02:55:46.553Z,88
2019-05-07T02:56:45.331Z,88.67
2019-05-07T03:00:06.590Z,88.76
2019-05-07T03:02:29.313Z,87.9
2019-05-07T03:03:27.851Z,86.9
2019-05-07T03:04:26.630Z,86.95
2019-05-07T03:05:25.211Z,88.09
2019-05-07T03:06:23.775Z,87.71
2019-05-07T03:10:06.780Z,87.62
2019-05-07T03:11:05.328Z,88.28
2019-05-07T03:12:04.160Z,88
2019-05-07T03:13:03.131Z,88
2019-05-07T03:14:03.137Z,88.28
